Latest Weather Observations for Pirlangimpi

IDD60801

Issued at 2:35 pm CST Friday 25 April 2014 (issued every 30 minutes, with the page automatically refreshed every 10 minutes)

About weather observations | Map of weather stations | Latest weather observations for NT | Other Formats
Station Details ID: 014142 Name: PIRLANGIMPI AIRPORT Lat: -11.40 Lon: 130.42 Height: 18.3 m
Data from the previous 72 hours. | See also: Recent months at Pirlangimpi
Date/Time
CST
Temp
°C
App
Temp
°C
Dew
Point
Rel
Hum
%
Delta-T
°C
Wind Press
QNH
hPa
Press
MSL
hPa
Rain
since 9 am
mm
Dir
 
Spd
km/h
Gust
km/h
Spd
kts
Gust
kts
25/02:30pm 32.7 37.1 24.5 62 5.8 S 9 15 5 8 1006.8 1006.7 0.0
25/02:00pm 32.8 36.8 23.7 58 6.3 S 9 15 5 8 1007.2 - 0.0
25/01:30pm 32.2 36.5 23.7 61 5.9 S 7 13 4 7 1007.5 1007.4 0.0
25/01:00pm 32.9 37.6 24.9 63 5.6 S 9 15 5 8 1008.0 - 0.0
25/12:30pm 32.1 36.1 24.4 63 5.4 SSW 11 15 6 8 1008.6 1008.5 0.0
25/12:00pm 31.9 36.6 25.0 67 4.9 SSW 9 15 5 8 1009.0 1008.9 0.0
25/11:30am 30.9 35.8 25.3 72 4.0 S 9 13 5 7 1009.5 1009.4 0.0
25/11:00am 31.4 36.2 25.7 71 4.1 SSW 11 15 6 8 1009.9 - 0.0
25/10:30am 30.4 36.0 25.7 76 3.3 SSW 7 13 4 7 1010.0 1009.9 0.0
25/10:00am 30.4 36.0 25.7 76 3.3 SSW 7 11 4 6 1010.1 - 0.0
25/09:30am 29.5 35.1 25.7 80 2.7 SSW 7 11 4 6 1009.9 1009.8 0.0
25/09:00am 28.3 34.8 26.3 89 1.4 S 4 6 2 3 1009.7 1009.6 0.0
25/08:30am 27.1 34.1 25.9 93 0.8 CALM 0 0 0 0 1009.3 1009.2 0.0
25/08:00am 26.4 33.4 25.9 97 0.4 CALM 0 4 0 2 1009.0 - 0.0
25/07:30am 25.4 31.7 24.7 96 0.5 CALM 0 0 0 0 1008.5 1008.4 0.0
25/07:00am 25.0 30.6 24.3 96 0.5 S 2 4 1 2 1008.2 - 0.0
25/06:30am 24.9 30.4 24.0 95 0.6 S 2 6 1 3 1007.6 1007.5 0.0
25/06:00am 24.8 30.6 23.9 95 0.6 CALM 0 2 0 1 1007.2 1007.1 0.0
25/05:30am 24.8 30.6 23.9 95 0.6 CALM 0 0 0 0 1006.9 1006.8 0.0
25/05:00am 24.9 30.7 24.0 95 0.6 CALM 0 0 0 0 1006.8 - 0.0
25/04:30am 24.8 30.6 23.9 95 0.6 CALM 0 0 0 0 1006.6 1006.5 0.0
25/04:00am 24.8 30.5 23.8 94 0.7 CALM 0 0 0 0 1006.7 - 0.0
25/03:30am 24.8 30.6 23.9 95 0.6 CALM 0 0 0 0 1006.9 1006.8 0.0
25/03:00am 24.8 30.2 23.8 94 0.7 NE 2 4 1 2 1006.9 1006.8 0.0
25/02:30am 24.9 30.7 23.9 94 0.7 CALM 0 2 0 1 1007.1 1007.0 0.0
25/02:00am 25.1 31.1 24.2 95 0.6 CALM 0 0 0 0 1007.3 - 0.0
25/01:30am 25.2 31.2 24.2 94 0.7 CALM 0 0 0 0 1007.6 1007.5 0.0
25/01:00am 25.2 31.2 24.2 94 0.7 CALM 0 0 0 0 1007.9 - 0.0
25/12:30am 25.1 30.9 23.9 93 0.8 CALM 0 0 0 0 1008.2 1008.1 0.0
25/12:00am 25.3 31.2 24.1 93 0.8 ENE 0 0 0 0 1008.6 1008.5 0.0
 
Date/Time
CST
Temp
°C
App
Temp
°C
Dew
Point
Rel
Hum
%
Delta-T
°C
Wind Press
QNH
hPa
Press
MSL
hPa
Rain
since 9 am
mm
Dir
 
Spd
km/h
Gust
km/h
Spd
kts
Gust
kts
24/11:30pm 25.5 31.5 24.3 93 0.8 CALM 0 0 0 0 1008.7 1008.6 0.0
24/11:00pm 25.6 31.6 24.2 92 1.0 CALM 0 0 0 0 1009.0 - 0.0
24/10:30pm 25.7 31.6 24.1 91 1.1 CALM 0 0 0 0 1009.0 1008.9 0.0
24/10:00pm 25.9 31.9 24.3 91 1.1 CALM 0 0 0 0 1008.9 - 0.0
24/09:30pm 26.1 32.1 24.3 90 1.2 CALM 0 0 0 0 1008.7 1008.6 0.0
24/09:00pm 26.3 32.3 24.3 89 1.4 CALM 0 0 0 0 1008.5 1008.4 0.0
24/08:30pm 26.4 32.5 24.4 89 1.4 CALM 0 0 0 0 1008.0 1007.9 0.0
24/08:00pm 26.3 32.0 23.8 86 1.7 CALM 0 0 0 0 1007.4 - 0.0
24/07:30pm 26.5 32.0 23.4 83 2.1 CALM 0 0 0 0 1006.9 1006.8 0.0
24/07:00pm 27.0 32.6 23.5 81 2.4 CALM 0 0 0 0 1006.7 - 0.0
24/06:30pm 27.8 33.4 23.6 78 2.9 CALM 0 0 0 0 1006.5 1006.4 0.0
24/06:00pm 29.2 34.8 24.3 75 3.4 ESE 2 4 1 2 1006.0 1005.9 0.0
24/05:30pm 30.4 35.1 23.3 66 4.9 E 4 4 2 2 1005.7 1005.6 0.0
24/05:00pm 31.3 35.2 22.6 60 5.9 SSE 6 7 3 4 1005.3 - 0.0
24/04:30pm 31.8 35.1 22.5 58 6.4 S 9 13 5 7 1005.4 1005.3 0.0
24/04:00pm 31.8 35.4 23.1 60 6.0 SSW 9 13 5 7 1005.5 - 0.0
24/03:30pm 32.1 35.5 23.3 59 6.1 SSW 11 15 6 8 1005.7 1005.6 0.0
24/03:00pm 32.6 35.4 23.0 57 6.6 SSW 13 19 7 10 1006.2 1006.1 0.0
24/02:30pm 32.4 35.5 23.6 59 6.1 SSW 13 17 7 9 1006.6 1006.5 0.0
24/02:00pm 32.3 35.1 23.0 58 6.4 SSW 13 19 7 10 1007.0 - 0.0
24/01:30pm 33.0 35.6 23.3 56 6.7 SSW 15 20 8 11 1007.5 1007.4 0.0
24/01:00pm 32.7 35.7 23.3 57 6.5 S 13 20 7 11 1007.7 - 0.0
24/12:30pm 32.6 34.9 23.5 58 6.3 SSW 17 24 9 13 1007.9 1007.8 0.0
24/12:00pm 32.2 35.2 24.0 62 5.7 SSW 15 22 8 12 1008.2 1008.1 0.0
24/11:30am 32.0 35.1 24.1 63 5.5 S 15 22 8 12 1008.7 1008.6 0.0
24/11:00am 32.1 35.3 24.4 63 5.4 S 15 26 8 14 1009.2 - 0.0
24/10:30am 31.2 34.6 24.6 68 4.6 SSW 15 20 8 11 1009.5 1009.4 0.0
24/10:00am 30.4 34.5 24.5 70 4.1 SSW 11 17 6 9 1009.6 - 0.0
24/09:30am 30.1 34.9 24.5 72 3.9 S 7 13 4 7 1009.5 1009.4 0.0
24/09:00am 29.3 34.2 24.6 76 3.3 SSE 7 11 4 6 1009.5 1009.4 0.0
24/08:30am 27.8 32.6 24.4 82 2.4 SE 7 11 4 6 1009.2 1009.1 0.0
24/08:00am 26.7 31.8 24.7 89 1.4 SE 6 7 3 4 1008.9 - 0.0
24/07:30am 25.3 30.4 24.1 93 0.8 E 4 4 2 2 1008.5 1008.4 0.0
24/07:00am 25.1 30.5 23.9 93 0.8 NE 2 4 1 2 1007.9 - 0.0
24/06:30am 25.2 30.9 23.8 92 1.0 CALM 0 0 0 0 1007.3 1007.2 0.0
24/06:00am 25.9 31.4 24.1 90 1.2 SE 2 4 1 2 1006.5 1006.4 0.0
24/05:30am 26.2 31.4 24.2 89 1.4 SSE 4 7 2 4 1006.2 1006.1 0.0
24/05:00am 26.5 31.8 24.3 88 1.5 SE 4 6 2 3 1006.2 - 0.0
24/04:30am 27.0 32.0 24.8 88 1.5 S 7 15 4 8 1006.3 1006.2 0.0
24/04:00am 26.9 32.2 24.9 89 1.4 S 6 7 3 4 1006.2 - 0.0
24/03:30am 25.9 31.0 24.1 90 1.2 S 4 4 2 2 1006.2 1006.1 0.0
24/03:00am 26.2 32.2 24.2 89 1.4 CALM 0 2 0 1 1006.3 1006.2 0.0
24/02:30am 26.3 31.9 24.2 88 1.5 SW 2 7 1 4 1006.6 1006.5 0.0
24/02:00am 26.3 32.1 24.0 87 1.6 CALM 0 0 0 0 1006.8 - 0.0
24/01:30am 26.7 32.7 24.2 86 1.7 CALM 0 2 0 1 1007.2 1007.1 0.0
24/01:00am 27.1 32.3 24.2 84 2.0 WSW 4 6 2 3 1007.5 - 0.0
24/12:30am 27.0 32.3 24.3 85 1.9 SW 4 9 2 5 1008.0 1007.9 0.0
24/12:00am 26.5 32.5 24.2 87 1.6 CALM 0 0 0 0 1008.5 1008.4 0.0
 
Date/Time
CST
Temp
°C
App
Temp
°C
Dew
Point
Rel
Hum
%
Delta-T
°C
Wind Press
QNH
hPa
Press
MSL
hPa
Rain
since 9 am
mm
Dir
 
Spd
km/h
Gust
km/h
Spd
kts
Gust
kts
23/11:30pm 27.1 32.7 24.2 84 2.0 SW 2 4 1 2 1008.5 1008.4 0.0
23/11:00pm 27.1 33.1 24.2 84 2.0 CALM 0 4 0 2 1008.8 - 0.0
23/10:30pm 27.3 33.0 24.4 84 2.0 SW 2 4 1 2 1009.0 1008.9 0.0
23/10:00pm 27.2 33.1 24.1 83 2.1 CALM 0 4 0 2 1009.1 - 0.0
23/09:30pm 27.3 33.0 23.7 81 2.5 CALM 0 2 0 1 1009.0 1008.9 0.0
23/09:00pm 27.9 32.8 23.7 78 2.9 SW 4 7 2 4 1008.4 1008.3 0.0
23/08:30pm 28.2 32.7 23.6 76 3.2 SW 6 11 3 6 1007.8 1007.7 0.0
23/08:00pm 28.0 32.6 23.2 75 3.3 SW 4 7 2 4 1007.4 - 0.0
23/07:30pm 28.0 33.1 22.7 73 3.6 CALM 0 0 0 0 1007.3 1007.2 0.0
23/07:00pm 29.0 33.2 22.5 68 4.4 SW 4 7 2 4 1007.0 - 0.0
23/06:30pm 30.1 33.9 21.7 60 5.7 S 4 7 2 4 1006.5 1006.4 0.0
23/06:00pm 30.9 33.9 21.9 58 6.1 SSW 9 13 5 7 1006.2 1006.1 0.0
23/05:30pm 31.6 33.6 21.5 55 6.8 SSW 13 17 7 9 1005.8 1005.7 0.0
23/05:00pm 32.4 34.4 21.6 53 7.3 SSW 13 19 7 10 1005.4 - 0.0
23/04:30pm 32.6 34.2 21.5 52 7.5 S 15 22 8 12 1005.1 1005.0 0.0
23/04:00pm 33.4 34.8 21.9 51 7.8 SSW 17 22 9 12 1005.2 - 0.0
23/03:30pm 33.4 33.7 20.5 46 8.6 SSW 19 26 10 14 1005.3 1005.2 0.0
23/03:00pm 33.4 34.9 21.2 48 8.3 SSW 15 22 8 12 1005.8 1005.7 0.0
23/02:30pm 33.5 34.8 21.6 49 8.1 SSW 17 22 9 12 1006.1 1006.0 0.0
23/02:00pm 33.3 34.7 21.8 51 7.8 SSW 17 26 9 14 1006.5 - 0.0
23/01:30pm 32.9 34.4 22.0 52 7.4 SSW 17 22 9 12 1006.9 1006.8 0.0
23/01:00pm 32.8 34.5 22.3 54 7.2 SSW 17 22 9 12 1007.4 - 0.0
23/12:30pm 32.6 34.7 22.4 55 7.0 SSW 15 22 8 12 1007.9 1007.8 0.0
23/12:00pm 32.2 34.1 22.0 55 6.9 SSW 15 19 8 10 1008.4 1008.3 0.0
23/11:30am 32.9 35.2 22.0 52 7.4 S 13 24 7 13 1008.7 1008.6 0.0
23/11:00am 31.6 35.8 24.7 67 4.8 S 11 19 6 10 1009.1 - 0.0
23/10:30am 30.5 34.2 24.6 70 4.1 SSW 13 19 7 10 1009.4 1009.3 0.0
23/10:00am 31.0 35.4 25.6 73 3.8 SSW 13 17 7 9 1009.4 - 0.0
23/09:30am 30.4 35.7 25.2 74 3.7 S 7 19 4 10 1009.1 1009.0 0.0
23/09:00am 28.5 33.9 25.1 82 2.4 SSE 6 7 3 4 1009.0 1008.9 0.0
23/08:30am 27.6 32.7 25.0 86 1.8 S 7 11 4 6 1008.9 1008.8 0.0
23/08:00am 26.9 32.7 25.1 90 1.3 SSE 4 7 2 4 1008.8 - 0.0
23/07:30am 25.2 31.2 24.2 94 0.7 CALM 0 4 0 2 1008.6 1008.5 0.0
23/07:00am 24.5 29.9 23.3 93 0.8 CALM 0 0 0 0 1008.4 - 0.0
23/06:30am 24.6 30.1 23.4 93 0.8 CALM 0 0 0 0 1008.4 1008.3 0.0
23/06:00am 24.7 30.1 23.3 92 1.0 CALM 0 0 0 0 1008.3 1008.2 0.0
23/05:30am 24.8 30.3 23.4 92 1.0 CALM 0 0 0 0 1008.5 1008.4 0.0
23/05:00am 24.8 29.4 23.2 91 1.1 ENE 4 6 2 3 1008.6 - 0.0
23/04:30am 24.9 29.2 23.3 91 1.1 NE 6 9 3 5 1008.6 1008.5 0.0
23/04:00am 25.1 30.7 23.5 91 1.1 CALM 0 2 0 1 1008.3 - 0.0
23/03:30am 25.5 30.4 23.7 90 1.2 E 4 6 2 3 1008.1 1008.0 0.0
23/03:00am 25.5 30.4 23.7 90 1.2 ESE 4 6 2 3 1007.9 1007.8 0.0
23/02:30am 25.8 31.0 23.5 87 1.6 E 2 4 1 2 1008.0 1007.9 0.0
23/02:00am 26.8 31.7 23.7 83 2.1 S 4 6 2 3 1007.9 - 0.0
23/01:30am 27.0 31.3 23.7 82 2.3 S 7 11 4 6 1008.1 1008.0 0.0
23/01:00am 27.1 30.9 24.0 83 2.1 SSW 11 13 6 7 1008.4 - 0.0
23/12:30am 26.2 31.1 24.4 90 1.2 S 6 9 3 5 1009.2 1009.1 0.0
23/12:00am 25.5 30.2 23.4 88 1.4 S 4 6 2 3 1009.7 1009.6 0.0
 
Date/Time
CST
Temp
°C
App
Temp
°C
Dew
Point
Rel
Hum
%
Delta-T
°C
Wind Press
QNH
hPa
Press
MSL
hPa
Rain
since 9 am
mm
Dir
 
Spd
km/h
Gust
km/h
Spd
kts
Gust
kts
22/11:30pm 25.5 30.2 23.4 88 1.4 ESE 4 4 2 2 1010.2 1010.1 0.0
22/11:00pm 25.5 31.0 23.4 88 1.4 CALM 0 0 0 0 1010.2 - 0.0
22/10:30pm 25.8 31.0 23.5 87 1.6 NE 2 6 1 3 1010.2 1010.1 0.0
22/10:00pm 26.1 31.7 23.6 86 1.7 CALM 0 2 0 1 1010.1 - 0.0
22/09:30pm 26.4 31.8 23.3 83 2.1 CALM 0 2 0 1 1010.2 1010.1 0.0
22/09:00pm 26.6 31.8 22.9 80 2.5 CALM 0 4 0 2 1009.4 1009.3 0.0
22/08:30pm 27.1 32.4 23.1 79 2.7 CALM 0 0 0 0 1009.2 1009.1 0.0
22/08:00pm 27.4 32.3 23.0 77 3.0 E 2 2 1 1 1008.9 - 0.0
22/07:30pm 28.1 32.8 22.6 72 3.7 E 2 4 1 2 1008.5 1008.4 0.0
22/07:00pm 29.0 33.1 22.2 66 4.6 SSE 4 6 2 3 1008.3 - 0.0
22/06:30pm 30.0 33.7 21.4 60 5.8 SSE 4 7 2 4 1008.0 1007.9 0.0
22/06:00pm 31.3 34.5 21.2 55 6.8 SE 6 9 3 5 1007.7 1007.6 0.0
22/05:30pm 32.6 35.4 20.8 49 7.9 E 7 13 4 7 1007.3 1007.2 0.0
22/05:00pm 33.5 35.4 20.6 46 8.6 E 11 17 6 9 1007.1 - 0.0
22/04:30pm 34.1 36.0 20.5 45 9.1 ESE 11 17 6 9 1006.9 1006.8 0.0
22/04:00pm 34.4 35.8 19.6 41 9.8 ESE 11 17 6 9 1006.6 - 0.0
22/03:30pm 34.7 35.5 19.1 39 10.3 SE 13 20 7 11 1006.5 1006.4 0.0
22/03:00pm 35.0 35.8 18.1 36 11.0 ESE 11 19 6 10 1006.6 1006.5 0.0

Other Formats:

Comma delimited format used in spreadsheet applications
http://www.bom.gov.au/fwo/IDD60801/IDD60801.94119.axf

JavaScript Object Notation format (JSON) in row-major order
http://www.bom.gov.au/fwo/IDD60801/IDD60801.94119.json